Airfield :
LOGIN :

Register | Disclaimer

   EN    FR    IT 

 










Legend :    VFR   Marginal VFR   IFR   Intensive IFR   Very Intensive IFR
Visi :
Ceiling :
>= 8 km
>= 3000ft
5 to 8 km
1000 to 3000 ft
1500m to 5 km
500 to 1000 ft
800 to 1500m
200 to 500 ft
< 800m
< 200 ft
Symbols :   Thunderstorms  Fog  Heavy snow  Heavy precipitations  Wind > 20 kt
SIGMETs :     Misc.  Thunderstorms  Icing  Turbulence  Mountain Waves  Volcanic Ashes







- Airport Elevation : 1504 ft
- IATA code : PNA


LEPP - Noain Pamplona

CURRENT METAR :
  • 170600Z 17001KT CAVOK 14/11 Q1018

EXPIRED METARs :
  • 170530Z 15002KT CAVOK 13/11 Q1018
  • 170500Z 17002KT CAVOK 12/10 Q1018
  • 170430Z 00000KT CAVOK 12/10 Q1018
  • 170400Z 15003KT CAVOK 11/10 Q1017
  • 170330Z 16002KT CAVOK 12/10 Q1017

TAF TAF LEPP
Valid from the 17 at 03:00 until the 18 at 03:00 UTC


170200Z 1703/1803 VRB05KT CAVOK TX31/1715Z TN14/1705Z
PROB30
TEMPO 1710/1717 17010KT
PROB30
TEMPO 1716/1720 03010KT
No reported NOTAMs for that airfield.
1 SIGMET reported for the Madrid FIR (LECM) :
 
Severe turbulence
LECM SIGMET 1 VALID 170600/171000 LEVA
LECM MADRID UIR SEV TURB FCST WI N4315 W00607 - N3912 W00111 - N4130 W00029 - N4306 W00209 - N4315 W00607 FL280/350 MOV NE WKN=



MET'MAP, your aeronautical weather chart ! - Copyright ORBIFLY December 2007 - Disclaimer

ORBIFLY MET'MAP TEAM :

Programming & Development : Alexandra Zaïnal
Concept & Development : Baudouin d'Aumeries
Co-Development & Prog : Marc-Olivier Méhu
Technical & hardware support : Manuel Goepfert

Contact : metmap@orbifly.com




SOURCES & CREDITS :

   NOAA